Ayr, ND

2:46 PM CDT on July 28, 2015 (GMT -0500)
Home of the Absaraka Crows | | Change Station
CLOSE
Current Station
Personal Weather Station
Location: Absaraka, ND
Elevation: 1066 ft
Nearby Weather Stations
Active Advisory: Wind Advisory

Elev 1066 ft 46.98 °N, 97.39 °W | Updated 4 seconds ago

Clear
Clear
77.2 °F
Feels Like 76 °F
N
9.2
Wind Variable Wind from SW
Gusts 18.3 mph

Today
High -- | Low -- °F
--% Chance of Precip.
Yesterday
High -- | Low -- °F
Precip. -- in
6:04 AM 9:08 PM
Waxing Gibbous, 91% visible
Pressure 29.71 in
Visibility 10.0 miles
Clouds Scattered Clouds 4900 ft
Heat Index 76 °F
Dew Point 16 °F
Humidity 10%
Rainfall 0.00 in
Snow Depth Not available.
UV 8 out of 12
Pollen 2.80 out of 12
Air Quality Not available.
Flu Activity Not available.
METAR KBAC 281935Z AUTO 25022G35KT 10SM SCT049 23/12 A2971 RMK AO2

More Conditions Fewer Conditions

Pressure 29.71 in
Visibility 10.0 miles
Clouds Scattered Clouds 4900 ft
Heat Index 76 °F
Dew Point 16 °F
Humidity 10%
Rainfall 0.00 in
Snow Depth Not available.
UV 8 out of 12
Pollen 2.80 out of 12
Air Quality Not available.
Flu Activity Not available.
METAR KBAC 281935Z AUTO 25022G35KT 10SM SCT049 23/12 A2971 RMK AO2

More Conditions Fewer Conditions

10-Day Weather Forecast

×

Almanac

Astronomy

Jul. 28, 2015 Rise Set
Actual Time
Civil Twilight
Nautical Twilight
Astronomical Twilight
Moon
Length of Visible Light
Length of Day
Tomorrow will be .
, % of the Moon is Illuminated

Today's Extremes

State Highs State Lows

Community

WunderPhotos

Upload Photos

1,841,935 photos uploaded!

WunderBlogs® & News

Nearby

Air Quality

  Air Quality AQ Index Pollutant
Not available.

Snow Depth

Station Depth Elevation

Earthquake Activity

City Distance Mag. Time & Date
Minimum magnitude displayed is 2.5.

Coastal Water Temperatures

Place Temperature

Stations

Nearby Weather Stations

Station Location Temp. Windchill Dew Point Humidity Wind Precip. Elev Updated Type
                   
Wind Advisory
Statement as of 10:40 AM CDT on July 28, 2015

... Wind Advisory remains in effect from 3 PM this afternoon to
11 PM CDT this evening...

* winds... southwest 25 to 35 mph with gusts up to 50 mph.

* Timing... this afternoon through this evening.

Precautionary/preparedness actions...

A Wind Advisory means that winds of 35 mph are expected. Winds
this strong can make driving difficult... especially for high
profile vehicles. Use extra caution.